Father Pat — WDG2791 — position and weather

sailwx.info

Track history (hours):
 
Tides and Currents Weather Stations Pressure Air Temp Water Temp Dewpoint Dewpoint Depression Visibility Wind Speed Wind Dir Waves Ship Positions

Father Pat

Owner: Marquette Transportation Company Gulf-Inland, LLC, Jefferson, LA. More information available from US FCC via Universal Licensing System and Coast Guard Vessel Documentation Center.

Last reported at 2015-Jul-30 05:33 UTC. Time now 2015-Jul-30 12:11 UTC.
Position N 29°34' W 090°56'.

Type: Towing. MMSI: 367519320.

Date/timePositionNaut miles runAvg speedWind from/ knotsBaromVisibWave heightAir tempDewpointWater temp
2015-Jul-30 05:33N 29°34' W 090°56'5 5.1
2015-Jul-30 04:31N 29°32' W 090°50'4 4.5
2015-Jul-30 03:33N 29°33' W 090°45'4 4.0
2015-Jul-30 02:33N 29°36' W 090°43'1 0.8
2015-Jul-30 01:33N 29°37' W 090°42'2 1.7
2015-Jul-30 00:34N 29°36' W 090°40'0 0.0
2015-Jul-29 23:33N 29°36' W 090°40'0 0.1
2015-Jul-29 22:33N 29°36' W 090°40'0 0.0
2015-Jul-29 21:33N 29°36' W 090°40'0 0.0
2015-Jul-29 20:33N 29°36' W 090°40'0 0.0
2015-Jul-29 19:34N 29°36' W 090°40'0 0.0
2015-Jul-29 18:33N 29°36' W 090°40'0 0.0
2015-Jul-29 17:33N 29°36' W 090°40'0 0.0
2015-Jul-29 16:33N 29°36' W 090°40'0 0.1
2015-Jul-29 15:33N 29°36' W 090°40'0 0.1
2015-Jul-29 14:34N 29°36' W 090°40'1 1.4
2015-Jul-29 13:33N 29°35' W 090°39'1 1.4
2015-Jul-29 12:33N 29°36' W 090°40'0 0.0
2015-Jul-29 11:33N 29°36' W 090°40'0 0.0
2015-Jul-29 10:33N 29°36' W 090°40'0 0.0
2015-Jul-29 09:33N 29°36' W 090°40'0 0.0
2015-Jul-29 08:33N 29°36' W 090°40'0 0.0
2015-Jul-29 07:33N 29°36' W 090°40'0 0.0
2015-Jul-29 06:34N 29°36' W 090°40'0 0.0
2015-Jul-29 05:33N 29°36' W 090°40'0 0.0
2015-Jul-29 04:34N 29°36' W 090°40'0 0.0
2015-Jul-29 03:33N 29°36' W 090°40'0 0.0
2015-Jul-29 02:33N 29°36' W 090°40'0 0.0
2015-Jul-29 01:33N 29°36' W 090°40'0 0.0
2015-Jul-29 00:33N 29°36' W 090°40'0 0.0
2015-Jul-28 23:33N 29°36' W 090°40'0 0.0
2015-Jul-28 22:33N 29°36' W 090°40'0 0.0
2015-Jul-28 21:33N 29°36' W 090°40'0 0.0
2015-Jul-28 20:34N 29°36' W 090°40'0 0.0
2015-Jul-28 19:33N 29°36' W 090°40'0 0.0
2015-Jul-28 18:34N 29°36' W 090°40'0 0.0
2015-Jul-28 17:34N 29°36' W 090°40'0 0.0
2015-Jul-28 16:33N 29°36' W 090°40'0 0.1
2015-Jul-28 15:33N 29°36' W 090°40'0 0.0
2015-Jul-28 14:33N 29°36' W 090°40'0 0.0
2015-Jul-28 13:33N 29°36' W 090°40'0 0.0
2015-Jul-28 12:33N 29°36' W 090°40'0 0.0
2015-Jul-28 11:33N 29°36' W 090°40'0 0.0
2015-Jul-28 10:33N 29°36' W 090°40'0 0.0
2015-Jul-28 09:33N 29°36' W 090°40'0 0.0
2015-Jul-28 08:34N 29°36' W 090°40'0 0.0
2015-Jul-28 07:33N 29°36' W 090°40'0 0.0
2015-Jul-28 06:33N 29°36' W 090°40'0 0.0
2015-Jul-28 05:33N 29°36' W 090°40'0 0.0
2015-Jul-28 04:33N 29°36' W 090°40'0 0.0
2015-Jul-28 03:34N 29°36' W 090°40'0 0.0
2015-Jul-28 02:33N 29°36' W 090°40'0 0.0
2015-Jul-28 01:33N 29°36' W 090°40'0 0.0
2015-Jul-28 00:33N 29°36' W 090°40'0 0.0
2015-Jul-27 23:33N 29°36' W 090°40'0 0.1
2015-Jul-27 22:33N 29°36' W 090°40'0 0.1
2015-Jul-27 21:34N 29°36' W 090°40'0 0.0
2015-Jul-27 20:33N 29°36' W 090°40'2 2.3
2015-Jul-27 19:33N 29°35' W 090°43'4 4.0
2015-Jul-27 18:33N 29°32' W 090°46'5 4.9
2015-Jul-27 17:33N 29°32' W 090°51'  
Track history (hours):
 
Tides and Currents Weather Stations Pressure Air Temp Water Temp Dewpoint Dewpoint Depression Visibility Wind Speed Wind Dir Waves Ship Positions

Father Pat

Owner: Marquette Transportation Company Gulf-Inland, LLC, Jefferson, LA. More information available from US FCC via Universal Licensing System and Coast Guard Vessel Documentation Center.

Last reported at 2015-Jul-30 05:33 UTC. Time now 2015-Jul-30 12:11 UTC.
Position N 29°34' W 090°56'.

Type: Towing. MMSI: 367519320.

Date/timePositionNaut miles runAvg speedWind from/ knotsBaromVisibWave heightAir tempDewpointWater temp
2015-Jul-30 05:33N 29°34' W 090°56'5 5.1
2015-Jul-30 04:31N 29°32' W 090°50'4 4.5
2015-Jul-30 03:33N 29°33' W 090°45'4 4.0
2015-Jul-30 02:33N 29°36' W 090°43'1 0.8
2015-Jul-30 01:33N 29°37' W 090°42'2 1.7
2015-Jul-30 00:34N 29°36' W 090°40'0 0.0
2015-Jul-29 23:33N 29°36' W 090°40'0 0.1
2015-Jul-29 22:33N 29°36' W 090°40'0 0.0
2015-Jul-29 21:33N 29°36' W 090°40'0 0.0
2015-Jul-29 20:33N 29°36' W 090°40'0 0.0
2015-Jul-29 19:34N 29°36' W 090°40'0 0.0
2015-Jul-29 18:33N 29°36' W 090°40'0 0.0
2015-Jul-29 17:33N 29°36' W 090°40'0 0.0
2015-Jul-29 16:33N 29°36' W 090°40'0 0.1
2015-Jul-29 15:33N 29°36' W 090°40'0 0.1
2015-Jul-29 14:34N 29°36' W 090°40'1 1.4
2015-Jul-29 13:33N 29°35' W 090°39'1 1.4
2015-Jul-29 12:33N 29°36' W 090°40'0 0.0
2015-Jul-29 11:33N 29°36' W 090°40'0 0.0
2015-Jul-29 10:33N 29°36' W 090°40'0 0.0
2015-Jul-29 09:33N 29°36' W 090°40'0 0.0
2015-Jul-29 08:33N 29°36' W 090°40'0 0.0
2015-Jul-29 07:33N 29°36' W 090°40'0 0.0
2015-Jul-29 06:34N 29°36' W 090°40'0 0.0
2015-Jul-29 05:33N 29°36' W 090°40'0 0.0
2015-Jul-29 04:34N 29°36' W 090°40'0 0.0
2015-Jul-29 03:33N 29°36' W 090°40'0 0.0
2015-Jul-29 02:33N 29°36' W 090°40'0 0.0
2015-Jul-29 01:33N 29°36' W 090°40'0 0.0
2015-Jul-29 00:33N 29°36' W 090°40'0 0.0
2015-Jul-28 23:33N 29°36' W 090°40'0 0.0
2015-Jul-28 22:33N 29°36' W 090°40'0 0.0
2015-Jul-28 21:33N 29°36' W 090°40'0 0.0
2015-Jul-28 20:34N 29°36' W 090°40'0 0.0
2015-Jul-28 19:33N 29°36' W 090°40'0 0.0
2015-Jul-28 18:34N 29°36' W 090°40'0 0.0
2015-Jul-28 17:34N 29°36' W 090°40'0 0.0
2015-Jul-28 16:33N 29°36' W 090°40'0 0.1
2015-Jul-28 15:33N 29°36' W 090°40'0 0.0
2015-Jul-28 14:33N 29°36' W 090°40'0 0.0
2015-Jul-28 13:33N 29°36' W 090°40'0 0.0
2015-Jul-28 12:33N 29°36' W 090°40'0 0.0
2015-Jul-28 11:33N 29°36' W 090°40'0 0.0
2015-Jul-28 10:33N 29°36' W 090°40'0 0.0
2015-Jul-28 09:33N 29°36' W 090°40'0 0.0
2015-Jul-28 08:34N 29°36' W 090°40'0 0.0
2015-Jul-28 07:33N 29°36' W 090°40'0 0.0
2015-Jul-28 06:33N 29°36' W 090°40'0 0.0
2015-Jul-28 05:33N 29°36' W 090°40'0 0.0
2015-Jul-28 04:33N 29°36' W 090°40'0 0.0
2015-Jul-28 03:34N 29°36' W 090°40'0 0.0
2015-Jul-28 02:33N 29°36' W 090°40'0 0.0
2015-Jul-28 01:33N 29°36' W 090°40'0 0.0
2015-Jul-28 00:33N 29°36' W 090°40'0 0.0
2015-Jul-27 23:33N 29°36' W 090°40'0 0.1
2015-Jul-27 22:33N 29°36' W 090°40'0 0.1
2015-Jul-27 21:34N 29°36' W 090°40'0 0.0
2015-Jul-27 20:33N 29°36' W 090°40'2 2.3
2015-Jul-27 19:33N 29°35' W 090°43'4 4.0
2015-Jul-27 18:33N 29°32' W 090°46'5 4.9
2015-Jul-27 17:33N 29°32' W 090°51'  

Dump ship's entire track history